
<gpx xmlns="http://www.topografix.com/GPX/1/1" xmlns:gpxx="http://www.garmin.com/xmlschemas/GpxExtensions/v3" xmlns:xsi="http://www.w3.org/2001/XMLSchema-instance" version="1.1" creator="Adze - https://getadze.com/" xsi:schemaLocation="http://www.topografix.com/GPX/1/1 http://www.topografix.com/GPX/1/1/gpx.xsd http://www.garmin.com/xmlschemas/GpxExtensions/v3 http://www.garmin.com/xmlschemas/GpxExtensionsv3.xsd">
    <metadata>
        <name>Untitled Document</name>
        <link href="http://www.garmin.com"></link>
        <time>2018-03-06T04:31:13.857Z</time>
    </metadata>
    <wpt lon="99.344100" lat="13.515035">
        <ele>128.000000</ele>
        <name>Pavothai</name>
        <cmt>21-OCT-06 12:41:20</cmt>
        <desc>21-OCT-06 12:41:20</desc>
        <sym>Block, Blue</sym>
        <extensions>
            <gpxx:WaypointExtension xmlns:gpxx="http://www.garmin.com/xmlschemas/GpxExtensions/v2" xmlns:xsi="http://www.w3.org/2001/XMLSchema-instance" xsi:schemaLocation="http://www.garmin.com/xmlschemas/GpxExtensions/v2 http://www.garmin.com/xmlschemas/GpxExtensions/v2/GpxExtensionsv2.xsd">
                <gpxx:DisplayMode>SymbolAndName</gpxx:DisplayMode>
            </gpxx:WaypointExtension>
        </extensions>
    </wpt>
    <wpt lon="99.359328" lat="13.549237">
        <name>October 2006 - Sunday water stop</name>
    </wpt>
    <trk>
        <name>October 2006 - Sunday</name>
        <extensions>
            <gpxx:TrackExtension>
                <gpxx:DisplayColor>DarkYellow</gpxx:DisplayColor>
            </gpxx:TrackExtension>
        </extensions>
        <trkseg>
            <trkpt lon="99.344201" lat="13.515203">
                <ele>120.782837</ele>
                <time>2006-10-22T03:34:13Z</time>
            </trkpt>
            <trkpt lon="99.344089" lat="13.514966">
                <ele>118.860107</ele>
                <time>2006-10-22T03:34:24Z</time>
            </trkpt>
            <trkpt lon="99.344236" lat="13.514860">
                <ele>120.302124</ele>
                <time>2006-10-22T03:34:30Z</time>
            </trkpt>
            <trkpt lon="99.344453" lat="13.514798">
                <ele>119.821411</ele>
                <time>2006-10-22T03:34:39Z</time>
            </trkpt>
            <trkpt lon="99.344473" lat="13.514765">
                <ele>120.302124</ele>
                <time>2006-10-22T03:34:41Z</time>
            </trkpt>
            <trkpt lon="99.344393" lat="13.514643">
                <ele>122.224731</ele>
                <time>2006-10-22T03:34:47Z</time>
            </trkpt>
            <trkpt lon="99.344116" lat="13.514508">
                <ele>120.302124</ele>
                <time>2006-10-22T03:35:00Z</time>
            </trkpt>
            <trkpt lon="99.344053" lat="13.514573">
                <ele>119.821411</ele>
                <time>2006-10-22T03:35:04Z</time>
            </trkpt>
            <trkpt lon="99.343896" lat="13.514931">
                <ele>117.898804</ele>
                <time>2006-10-22T03:35:18Z</time>
            </trkpt>
            <trkpt lon="99.343872" lat="13.514974">
                <ele>117.418213</ele>
                <time>2006-10-22T03:35:19Z</time>
            </trkpt>
            <trkpt lon="99.343843" lat="13.515171">
                <ele>117.418213</ele>
                <time>2006-10-22T03:35:23Z</time>
            </trkpt>
            <trkpt lon="99.343891" lat="13.515800">
                <ele>120.302124</ele>
                <time>2006-10-22T03:35:38Z</time>
            </trkpt>
            <trkpt lon="99.343992" lat="13.516446">
                <ele>119.340820</ele>
                <time>2006-10-22T03:35:55Z</time>
            </trkpt>
            <trkpt lon="99.344133" lat="13.517197">
                <ele>120.782837</ele>
                <time>2006-10-22T03:36:11Z</time>
            </trkpt>
            <trkpt lon="99.344327" lat="13.518110">
                <ele>122.705444</ele>
                <time>2006-10-22T03:36:33Z</time>
            </trkpt>
            <trkpt lon="99.344362" lat="13.518238">
                <ele>122.705444</ele>
                <time>2006-10-22T03:36:36Z</time>
            </trkpt>
            <trkpt lon="99.344644" lat="13.518389">
                <ele>122.224731</ele>
                <time>2006-10-22T03:36:43Z</time>
            </trkpt>
            <trkpt lon="99.344953" lat="13.518363">
                <ele>122.224731</ele>
                <time>2006-10-22T03:36:49Z</time>
            </trkpt>
            <trkpt lon="99.345134" lat="13.518532">
                <ele>122.224731</ele>
                <time>2006-10-22T03:36:55Z</time>
            </trkpt>
            <trkpt lon="99.345126" lat="13.518626">
                <ele>122.224731</ele>
                <time>2006-10-22T03:36:57Z</time>
            </trkpt>
            <trkpt lon="99.345033" lat="13.519398">
                <ele>123.666748</ele>
                <time>2006-10-22T03:37:13Z</time>
            </trkpt>
            <trkpt lon="99.345147" lat="13.519541">
                <ele>123.666748</ele>
                <time>2006-10-22T03:37:17Z</time>
            </trkpt>
            <trkpt lon="99.345237" lat="13.519595">
                <ele>123.186157</ele>
                <time>2006-10-22T03:37:19Z</time>
            </trkpt>
            <trkpt lon="99.345869" lat="13.520023">
                <ele>122.705444</ele>
                <time>2006-10-22T03:37:34Z</time>
            </trkpt>
            <trkpt lon="99.346330" lat="13.520338">
                <ele>121.744141</ele>
                <time>2006-10-22T03:37:48Z</time>
            </trkpt>
            <trkpt lon="99.346552" lat="13.520464">
                <ele>121.744141</ele>
                <time>2006-10-22T03:37:55Z</time>
            </trkpt>
            <trkpt lon="99.347059" lat="13.520822">
                <ele>121.744141</ele>
                <time>2006-10-22T03:38:11Z</time>
            </trkpt>
            <trkpt lon="99.347270" lat="13.520946">
                <ele>121.744141</ele>
                <time>2006-10-22T03:38:17Z</time>
            </trkpt>
            <trkpt lon="99.347686" lat="13.521312">
                <ele>122.224731</ele>
                <time>2006-10-22T03:38:30Z</time>
            </trkpt>
            <trkpt lon="99.347873" lat="13.521637">
                <ele>122.705444</ele>
                <time>2006-10-22T03:38:39Z</time>
            </trkpt>
            <trkpt lon="99.348343" lat="13.522289">
                <ele>125.108765</ele>
                <time>2006-10-22T03:38:56Z</time>
            </trkpt>
            <trkpt lon="99.348515" lat="13.522802">
                <ele>125.108765</ele>
                <time>2006-10-22T03:39:10Z</time>
            </trkpt>
            <trkpt lon="99.348614" lat="13.522974">
                <ele>125.108765</ele>
                <time>2006-10-22T03:39:14Z</time>
            </trkpt>
            <trkpt lon="99.349048" lat="13.523407">
                <ele>127.511963</ele>
                <time>2006-10-22T03:39:27Z</time>
            </trkpt>
            <trkpt lon="99.349643" lat="13.523940">
                <ele>127.992554</ele>
                <time>2006-10-22T03:39:43Z</time>
            </trkpt>
            <trkpt lon="99.349770" lat="13.524064">
                <ele>127.031372</ele>
                <time>2006-10-22T03:39:47Z</time>
            </trkpt>
            <trkpt lon="99.350049" lat="13.524207">
                <ele>124.628052</ele>
                <time>2006-10-22T03:39:59Z</time>
            </trkpt>
            <trkpt lon="99.350033" lat="13.524190">
                <ele>124.147339</ele>
                <time>2006-10-22T03:40:08Z</time>
            </trkpt>
            <trkpt lon="99.349764" lat="13.524086">
                <ele>124.147339</ele>
                <time>2006-10-22T03:40:22Z</time>
            </trkpt>
            <trkpt lon="99.349772" lat="13.524173">
                <ele>124.628052</ele>
                <time>2006-10-22T03:40:27Z</time>
            </trkpt>
            <trkpt lon="99.350099" lat="13.524929">
                <ele>122.224731</ele>
                <time>2006-10-22T03:40:46Z</time>
            </trkpt>
            <trkpt lon="99.350225" lat="13.525145">
                <ele>121.744141</ele>
                <time>2006-10-22T03:40:51Z</time>
            </trkpt>
            <trkpt lon="99.350666" lat="13.525479">
                <ele>121.263550</ele>
                <time>2006-10-22T03:41:01Z</time>
            </trkpt>
            <trkpt lon="99.350911" lat="13.525401">
                <ele>119.821411</ele>
                <time>2006-10-22T03:41:07Z</time>
            </trkpt>
            <trkpt lon="99.351023" lat="13.525313">
                <ele>118.860107</ele>
                <time>2006-10-22T03:41:10Z</time>
            </trkpt>
            <trkpt lon="99.351182" lat="13.525359">
                <ele>118.379395</ele>
                <time>2006-10-22T03:41:14Z</time>
            </trkpt>
            <trkpt lon="99.351565" lat="13.525715">
                <ele>117.898804</ele>
                <time>2006-10-22T03:41:25Z</time>
            </trkpt>
            <trkpt lon="99.351658" lat="13.525802">
                <ele>117.898804</ele>
                <time>2006-10-22T03:41:27Z</time>
            </trkpt>
            <trkpt lon="99.352376" lat="13.526210">
                <ele>118.379395</ele>
                <time>2006-10-22T03:41:42Z</time>
            </trkpt>
            <trkpt lon="99.353119" lat="13.526599">
                <ele>120.782837</ele>
                <time>2006-10-22T03:42:01Z</time>
            </trkpt>
            <trkpt lon="99.353253" lat="13.526734">
                <ele>120.782837</ele>
                <time>2006-10-22T03:42:05Z</time>
            </trkpt>
            <trkpt lon="99.353549" lat="13.527184">
                <ele>119.821411</ele>
                <time>2006-10-22T03:42:16Z</time>
            </trkpt>
            <trkpt lon="99.353763" lat="13.527500">
                <ele>120.782837</ele>
                <time>2006-10-22T03:42:24Z</time>
            </trkpt>
            <trkpt lon="99.353757" lat="13.527654">
                <ele>121.744141</ele>
                <time>2006-10-22T03:42:28Z</time>
            </trkpt>
            <trkpt lon="99.353413" lat="13.528116">
                <ele>124.147339</ele>
                <time>2006-10-22T03:42:46Z</time>
            </trkpt>
            <trkpt lon="99.352991" lat="13.528718">
                <ele>126.550659</ele>
                <time>2006-10-22T03:43:07Z</time>
            </trkpt>
            <trkpt lon="99.352611" lat="13.529263">
                <ele>126.550659</ele>
                <time>2006-10-22T03:43:22Z</time>
            </trkpt>
            <trkpt lon="99.352071" lat="13.530008">
                <ele>126.550659</ele>
                <time>2006-10-22T03:43:39Z</time>
            </trkpt>
            <trkpt lon="99.352017" lat="13.530092">
                <ele>126.069946</ele>
                <time>2006-10-22T03:43:41Z</time>
            </trkpt>
            <trkpt lon="99.352078" lat="13.530271">
                <ele>126.069946</ele>
                <time>2006-10-22T03:43:47Z</time>
            </trkpt>
            <trkpt lon="99.352865" lat="13.530670">
                <ele>127.031372</ele>
                <time>2006-10-22T03:44:06Z</time>
            </trkpt>
            <trkpt lon="99.353504" lat="13.530965">
                <ele>125.108765</ele>
                <time>2006-10-22T03:44:20Z</time>
            </trkpt>
            <trkpt lon="99.353625" lat="13.530857">
                <ele>124.147339</ele>
                <time>2006-10-22T03:44:24Z</time>
            </trkpt>
            <trkpt lon="99.353967" lat="13.530486">
                <ele>124.147339</ele>
                <time>2006-10-22T03:44:35Z</time>
            </trkpt>
            <trkpt lon="99.354281" lat="13.530673">
                <ele>122.705444</ele>
                <time>2006-10-22T03:44:43Z</time>
            </trkpt>
            <trkpt lon="99.354764" lat="13.530977">
                <ele>121.263550</ele>
                <time>2006-10-22T03:44:53Z</time>
            </trkpt>
            <trkpt lon="99.354954" lat="13.531082">
                <ele>120.782837</ele>
                <time>2006-10-22T03:44:58Z</time>
            </trkpt>
            <trkpt lon="99.355051" lat="13.530981">
                <ele>120.782837</ele>
                <time>2006-10-22T03:45:02Z</time>
            </trkpt>
            <trkpt lon="99.355288" lat="13.530573">
                <ele>121.263550</ele>
                <time>2006-10-22T03:45:13Z</time>
            </trkpt>
            <trkpt lon="99.355540" lat="13.530197">
                <ele>121.263550</ele>
                <time>2006-10-22T03:45:23Z</time>
            </trkpt>
            <trkpt lon="99.355603" lat="13.530055">
                <ele>120.782837</ele>
                <time>2006-10-22T03:45:27Z</time>
            </trkpt>
            <trkpt lon="99.355502" lat="13.529978">
                <ele>119.821411</ele>
                <time>2006-10-22T03:45:31Z</time>
            </trkpt>
            <trkpt lon="99.355433" lat="13.529941">
                <ele>119.340820</ele>
                <time>2006-10-22T03:45:33Z</time>
            </trkpt>
            <trkpt lon="99.354835" lat="13.529554">
                <ele>119.340820</ele>
                <time>2006-10-22T03:45:51Z</time>
            </trkpt>
            <trkpt lon="99.354867" lat="13.529465">
                <ele>118.860107</ele>
                <time>2006-10-22T03:45:55Z</time>
            </trkpt>
            <trkpt lon="99.355337" lat="13.528940">
                <ele>117.418213</ele>
                <time>2006-10-22T03:46:10Z</time>
            </trkpt>
            <trkpt lon="99.355715" lat="13.528511">
                <ele>115.976196</ele>
                <time>2006-10-22T03:46:25Z</time>
            </trkpt>
            <trkpt lon="99.355803" lat="13.528409">
                <ele>115.495605</ele>
                <time>2006-10-22T03:46:36Z</time>
            </trkpt>
            <trkpt lon="99.355812" lat="13.528401">
                <ele>115.495605</ele>
                <time>2006-10-22T03:47:03Z</time>
            </trkpt>
            <trkpt lon="99.355789" lat="13.528438">
                <ele>118.379395</ele>
                <time>2006-10-22T03:47:38Z</time>
            </trkpt>
            <trkpt lon="99.355802" lat="13.528467">
                <ele>117.898804</ele>
                <time>2006-10-22T03:47:41Z</time>
            </trkpt>
            <trkpt lon="99.356026" lat="13.528575">
                <ele>116.937500</ele>
                <time>2006-10-22T03:47:51Z</time>
            </trkpt>
            <trkpt lon="99.356418" lat="13.528830">
                <ele>116.937500</ele>
                <time>2006-10-22T03:48:04Z</time>
            </trkpt>
            <trkpt lon="99.356425" lat="13.528860">
                <ele>116.937500</ele>
                <time>2006-10-22T03:48:05Z</time>
            </trkpt>
            <trkpt lon="99.356377" lat="13.528969">
                <ele>116.456787</ele>
                <time>2006-10-22T03:48:10Z</time>
            </trkpt>
            <trkpt lon="99.356179" lat="13.529247">
                <ele>116.456787</ele>
                <time>2006-10-22T03:48:24Z</time>
            </trkpt>
            <trkpt lon="99.355843" lat="13.529735">
                <ele>116.937500</ele>
                <time>2006-10-22T03:48:42Z</time>
            </trkpt>
            <trkpt lon="99.355777" lat="13.529820">
                <ele>117.418213</ele>
                <time>2006-10-22T03:48:53Z</time>
            </trkpt>
            <trkpt lon="99.355652" lat="13.530014">
                <ele>118.860107</ele>
                <time>2006-10-22T03:49:08Z</time>
            </trkpt>
            <trkpt lon="99.355475" lat="13.530264">
                <ele>118.860107</ele>
                <time>2006-10-22T03:49:21Z</time>
            </trkpt>
            <trkpt lon="99.355232" lat="13.530645">
                <ele>118.860107</ele>
                <time>2006-10-22T03:49:36Z</time>
            </trkpt>
            <trkpt lon="99.354942" lat="13.531083">
                <ele>117.898804</ele>
                <time>2006-10-22T03:49:52Z</time>
            </trkpt>
            <trkpt lon="99.354724" lat="13.531468">
                <ele>117.418213</ele>
                <time>2006-10-22T03:50:05Z</time>
            </trkpt>
            <trkpt lon="99.354366" lat="13.532059">
                <ele>116.456787</ele>
                <time>2006-10-22T03:50:24Z</time>
            </trkpt>
            <trkpt lon="99.354272" lat="13.532205">
                <ele>116.937500</ele>
                <time>2006-10-22T03:50:30Z</time>
            </trkpt>
            <trkpt lon="99.354204" lat="13.532198">
                <ele>117.418213</ele>
                <time>2006-10-22T03:50:40Z</time>
            </trkpt>
            <trkpt lon="99.353883" lat="13.532072">
                <ele>117.898804</ele>
                <time>2006-10-22T03:50:51Z</time>
            </trkpt>
            <trkpt lon="99.353298" lat="13.531819">
                <ele>119.340820</ele>
                <time>2006-10-22T03:51:09Z</time>
            </trkpt>
            <trkpt lon="99.353070" lat="13.531611">
                <ele>121.744141</ele>
                <time>2006-10-22T03:51:20Z</time>
            </trkpt>
            <trkpt lon="99.353016" lat="13.531666">
                <ele>121.263550</ele>
                <time>2006-10-22T03:51:24Z</time>
            </trkpt>
            <trkpt lon="99.352966" lat="13.531686">
                <ele>122.224731</ele>
                <time>2006-10-22T03:51:30Z</time>
            </trkpt>
            <trkpt lon="99.353006" lat="13.531677">
                <ele>122.705444</ele>
                <time>2006-10-22T03:51:33Z</time>
            </trkpt>
            <trkpt lon="99.353102" lat="13.531582">
                <ele>122.224731</ele>
                <time>2006-10-22T03:51:38Z</time>
            </trkpt>
            <trkpt lon="99.353479" lat="13.531016">
                <ele>121.263550</ele>
                <time>2006-10-22T03:51:54Z</time>
            </trkpt>
            <trkpt lon="99.353619" lat="13.530841">
                <ele>120.782837</ele>
                <time>2006-10-22T03:51:59Z</time>
            </trkpt>
            <trkpt lon="99.353748" lat="13.530708">
                <ele>121.263550</ele>
                <time>2006-10-22T03:52:03Z</time>
            </trkpt>
            <trkpt lon="99.354412" lat="13.529949">
                <ele>121.744141</ele>
                <time>2006-10-22T03:52:24Z</time>
            </trkpt>
            <trkpt lon="99.355042" lat="13.529257">
                <ele>118.860107</ele>
                <time>2006-10-22T03:52:39Z</time>
            </trkpt>
            <trkpt lon="99.355741" lat="13.528487">
                <ele>116.456787</ele>
                <time>2006-10-22T03:52:56Z</time>
            </trkpt>
            <trkpt lon="99.355958" lat="13.528347">
                <ele>115.976196</ele>
                <time>2006-10-22T03:53:05Z</time>
            </trkpt>
            <trkpt lon="99.356142" lat="13.528173">
                <ele>116.456787</ele>
                <time>2006-10-22T03:53:11Z</time>
            </trkpt>
            <trkpt lon="99.356400" lat="13.528111">
                <ele>116.937500</ele>
                <time>2006-10-22T03:53:18Z</time>
            </trkpt>
            <trkpt lon="99.356594" lat="13.528238">
                <ele>116.937500</ele>
                <time>2006-10-22T03:53:26Z</time>
            </trkpt>
            <trkpt lon="99.356658" lat="13.528276">
                <ele>116.937500</ele>
                <time>2006-10-22T03:53:27Z</time>
            </trkpt>
            <trkpt lon="99.357162" lat="13.528349">
                <ele>119.821411</ele>
                <time>2006-10-22T03:53:40Z</time>
            </trkpt>
            <trkpt lon="99.357468" lat="13.528511">
                <ele>118.860107</ele>
                <time>2006-10-22T03:53:53Z</time>
            </trkpt>
            <trkpt lon="99.357914" lat="13.528830">
                <ele>118.860107</ele>
                <time>2006-10-22T03:54:10Z</time>
            </trkpt>
            <trkpt lon="99.358430" lat="13.529216">
                <ele>122.224731</ele>
                <time>2006-10-22T03:54:26Z</time>
            </trkpt>
            <trkpt lon="99.358691" lat="13.529278">
                <ele>120.782837</ele>
                <time>2006-10-22T03:54:36Z</time>
            </trkpt>
            <trkpt lon="99.359238" lat="13.529431">
                <ele>119.821411</ele>
                <time>2006-10-22T03:54:52Z</time>
            </trkpt>
            <trkpt lon="99.359680" lat="13.529537">
                <ele>118.379395</ele>
                <time>2006-10-22T03:55:04Z</time>
            </trkpt>
            <trkpt lon="99.360100" lat="13.529647">
                <ele>116.456787</ele>
                <time>2006-10-22T03:55:18Z</time>
            </trkpt>
            <trkpt lon="99.360464" lat="13.529849">
                <ele>115.976196</ele>
                <time>2006-10-22T03:55:31Z</time>
            </trkpt>
            <trkpt lon="99.360657" lat="13.530363">
                <ele>115.495605</ele>
                <time>2006-10-22T03:55:47Z</time>
            </trkpt>
            <trkpt lon="99.360880" lat="13.530939">
                <ele>114.534180</ele>
                <time>2006-10-22T03:56:04Z</time>
            </trkpt>
            <trkpt lon="99.361090" lat="13.531505">
                <ele>114.534180</ele>
                <time>2006-10-22T03:56:19Z</time>
            </trkpt>
            <trkpt lon="99.360990" lat="13.531679">
                <ele>114.534180</ele>
                <time>2006-10-22T03:56:24Z</time>
            </trkpt>
            <trkpt lon="99.360222" lat="13.532103">
                <ele>113.092285</ele>
                <time>2006-10-22T03:56:42Z</time>
            </trkpt>
            <trkpt lon="99.359695" lat="13.532343">
                <ele>113.572998</ele>
                <time>2006-10-22T03:56:57Z</time>
            </trkpt>
            <trkpt lon="99.359508" lat="13.532416">
                <ele>113.092285</ele>
                <time>2006-10-22T03:57:02Z</time>
            </trkpt>
            <trkpt lon="99.358657" lat="13.532664">
                <ele>114.534180</ele>
                <time>2006-10-22T03:57:22Z</time>
            </trkpt>
            <trkpt lon="99.358613" lat="13.532675">
                <ele>114.534180</ele>
                <time>2006-10-22T03:57:26Z</time>
            </trkpt>
            <trkpt lon="99.358563" lat="13.532689">
                <ele>114.534180</ele>
                <time>2006-10-22T03:57:30Z</time>
            </trkpt>
            <trkpt lon="99.358039" lat="13.532872">
                <ele>115.976196</ele>
                <time>2006-10-22T03:57:47Z</time>
            </trkpt>
            <trkpt lon="99.357369" lat="13.533113">
                <ele>116.456787</ele>
                <time>2006-10-22T03:58:05Z</time>
            </trkpt>
            <trkpt lon="99.356414" lat="13.533361">
                <ele>115.495605</ele>
                <time>2006-10-22T03:58:24Z</time>
            </trkpt>
            <trkpt lon="99.356207" lat="13.533388">
                <ele>115.495605</ele>
                <time>2006-10-22T03:58:29Z</time>
            </trkpt>
            <trkpt lon="99.356174" lat="13.533518">
                <ele>114.053589</ele>
                <time>2006-10-22T03:58:33Z</time>
            </trkpt>
            <trkpt lon="99.356274" lat="13.533989">
                <ele>112.611572</ele>
                <time>2006-10-22T03:58:45Z</time>
            </trkpt>
            <trkpt lon="99.356287" lat="13.534029">
                <ele>112.611572</ele>
                <time>2006-10-22T03:58:46Z</time>
            </trkpt>
            <trkpt lon="99.356359" lat="13.534201">
                <ele>112.611572</ele>
                <time>2006-10-22T03:58:50Z</time>
            </trkpt>
            <trkpt lon="99.356378" lat="13.534286">
                <ele>112.611572</ele>
                <time>2006-10-22T03:58:52Z</time>
            </trkpt>
            <trkpt lon="99.356502" lat="13.534452">
                <ele>113.092285</ele>
                <time>2006-10-22T03:58:57Z</time>
            </trkpt>
            <trkpt lon="99.356792" lat="13.534701">
                <ele>113.572998</ele>
                <time>2006-10-22T03:59:08Z</time>
            </trkpt>
            <trkpt lon="99.357091" lat="13.534914">
                <ele>114.534180</ele>
                <time>2006-10-22T03:59:21Z</time>
            </trkpt>
            <trkpt lon="99.357217" lat="13.535161">
                <ele>114.534180</ele>
                <time>2006-10-22T03:59:33Z</time>
            </trkpt>
            <trkpt lon="99.357324" lat="13.535621">
                <ele>113.572998</ele>
                <time>2006-10-22T03:59:47Z</time>
            </trkpt>
            <trkpt lon="99.357364" lat="13.535881">
                <ele>113.092285</ele>
                <time>2006-10-22T03:59:58Z</time>
            </trkpt>
            <trkpt lon="99.357532" lat="13.536145">
                <ele>112.130981</ele>
                <time>2006-10-22T04:00:11Z</time>
            </trkpt>
            <trkpt lon="99.357789" lat="13.536555">
                <ele>110.688843</ele>
                <time>2006-10-22T04:00:24Z</time>
            </trkpt>
            <trkpt lon="99.357811" lat="13.536593">
                <ele>111.169556</ele>
                <time>2006-10-22T04:00:25Z</time>
            </trkpt>
            <trkpt lon="99.357837" lat="13.536904">
                <ele>109.246948</ele>
                <time>2006-10-22T04:00:35Z</time>
            </trkpt>
            <trkpt lon="99.357845" lat="13.537086">
                <ele>108.285645</ele>
                <time>2006-10-22T04:00:40Z</time>
            </trkpt>
            <trkpt lon="99.357754" lat="13.537226">
                <ele>106.843628</ele>
                <time>2006-10-22T04:00:44Z</time>
            </trkpt>
            <trkpt lon="99.357642" lat="13.537339">
                <ele>105.401733</ele>
                <time>2006-10-22T04:00:48Z</time>
            </trkpt>
            <trkpt lon="99.357362" lat="13.537561">
                <ele>102.998291</ele>
                <time>2006-10-22T04:00:55Z</time>
            </trkpt>
            <trkpt lon="99.357186" lat="13.537710">
                <ele>102.037109</ele>
                <time>2006-10-22T04:00:59Z</time>
            </trkpt>
            <trkpt lon="99.356741" lat="13.537933">
                <ele>99.153076</ele>
                <time>2006-10-22T04:01:11Z</time>
            </trkpt>
            <trkpt lon="99.356314" lat="13.538110">
                <ele>100.114502</ele>
                <time>2006-10-22T04:01:26Z</time>
            </trkpt>
            <trkpt lon="99.356260" lat="13.538087">
                <ele>100.114502</ele>
                <time>2006-10-22T04:01:36Z</time>
            </trkpt>
            <trkpt lon="99.356214" lat="13.537918">
                <ele>100.595093</ele>
                <time>2006-10-22T04:01:48Z</time>
            </trkpt>
            <trkpt lon="99.356151" lat="13.537610">
                <ele>101.556396</ele>
                <time>2006-10-22T04:02:00Z</time>
            </trkpt>
            <trkpt lon="99.356032" lat="13.537249">
                <ele>102.517700</ele>
                <time>2006-10-22T04:02:14Z</time>
            </trkpt>
            <trkpt lon="99.356024" lat="13.537251">
                <ele>102.998291</ele>
                <time>2006-10-22T04:02:16Z</time>
            </trkpt>
            <trkpt lon="99.355910" lat="13.537287">
                <ele>103.479004</ele>
                <time>2006-10-22T04:02:22Z</time>
            </trkpt>
            <trkpt lon="99.355479" lat="13.537362">
                <ele>105.882446</ele>
                <time>2006-10-22T04:02:39Z</time>
            </trkpt>
            <trkpt lon="99.355324" lat="13.537421">
                <ele>106.843628</ele>
                <time>2006-10-22T04:02:45Z</time>
            </trkpt>
            <trkpt lon="99.355391" lat="13.537858">
                <ele>103.959717</ele>
                <time>2006-10-22T04:02:57Z</time>
            </trkpt>
            <trkpt lon="99.355422" lat="13.538416">
                <ele>102.998291</ele>
                <time>2006-10-22T04:03:12Z</time>
            </trkpt>
            <trkpt lon="99.355069" lat="13.538594">
                <ele>102.517700</ele>
                <time>2006-10-22T04:03:27Z</time>
            </trkpt>
            <trkpt lon="99.354758" lat="13.538352">
                <ele>102.037109</ele>
                <time>2006-10-22T04:03:40Z</time>
            </trkpt>
            <trkpt lon="99.354488" lat="13.538069">
                <ele>102.998291</ele>
                <time>2006-10-22T04:03:54Z</time>
            </trkpt>
            <trkpt lon="99.354353" lat="13.537781">
                <ele>103.959717</ele>
                <time>2006-10-22T04:04:06Z</time>
            </trkpt>
            <trkpt lon="99.354265" lat="13.537507">
                <ele>104.440430</ele>
                <time>2006-10-22T04:04:21Z</time>
            </trkpt>
            <trkpt lon="99.354150" lat="13.537047">
                <ele>105.401733</ele>
                <time>2006-10-22T04:04:35Z</time>
            </trkpt>
            <trkpt lon="99.353999" lat="13.536408">
                <ele>105.882446</ele>
                <time>2006-10-22T04:04:52Z</time>
            </trkpt>
            <trkpt lon="99.353869" lat="13.535836">
                <ele>106.843628</ele>
                <time>2006-10-22T04:05:10Z</time>
            </trkpt>
            <trkpt lon="99.353754" lat="13.535384">
                <ele>108.285645</ele>
                <time>2006-10-22T04:05:27Z</time>
            </trkpt>
            <trkpt lon="99.353672" lat="13.534983">
                <ele>109.727661</ele>
                <time>2006-10-22T04:05:43Z</time>
            </trkpt>
            <trkpt lon="99.353570" lat="13.534543">
                <ele>111.650269</ele>
                <time>2006-10-22T04:05:59Z</time>
            </trkpt>
            <trkpt lon="99.353531" lat="13.534441">
                <ele>111.650269</ele>
                <time>2006-10-22T04:06:03Z</time>
            </trkpt>
            <trkpt lon="99.353417" lat="13.534426">
                <ele>112.611572</ele>
                <time>2006-10-22T04:06:07Z</time>
            </trkpt>
            <trkpt lon="99.353124" lat="13.534461">
                <ele>114.053589</ele>
                <time>2006-10-22T04:06:16Z</time>
            </trkpt>
            <trkpt lon="99.353074" lat="13.534347">
                <ele>113.572998</ele>
                <time>2006-10-22T04:06:21Z</time>
            </trkpt>
            <trkpt lon="99.353130" lat="13.533996">
                <ele>111.169556</ele>
                <time>2006-10-22T04:06:35Z</time>
            </trkpt>
            <trkpt lon="99.353046" lat="13.533934">
                <ele>111.169556</ele>
                <time>2006-10-22T04:06:39Z</time>
            </trkpt>
            <trkpt lon="99.352592" lat="13.533653">
                <ele>112.130981</ele>
                <time>2006-10-22T04:06:57Z</time>
            </trkpt>
            <trkpt lon="99.352162" lat="13.533368">
                <ele>112.611572</ele>
                <time>2006-10-22T04:07:13Z</time>
            </trkpt>
            <trkpt lon="99.351905" lat="13.533064">
                <ele>112.611572</ele>
                <time>2006-10-22T04:07:27Z</time>
            </trkpt>
            <trkpt lon="99.351919" lat="13.532918">
                <ele>112.130981</ele>
                <time>2006-10-22T04:07:32Z</time>
            </trkpt>
            <trkpt lon="99.351764" lat="13.532871">
                <ele>112.611572</ele>
                <time>2006-10-22T04:07:38Z</time>
            </trkpt>
            <trkpt lon="99.351684" lat="13.532873">
                <ele>112.130981</ele>
                <time>2006-10-22T04:07:41Z</time>
            </trkpt>
            <trkpt lon="99.351572" lat="13.532815">
                <ele>112.130981</ele>
                <time>2006-10-22T04:07:46Z</time>
            </trkpt>
            <trkpt lon="99.351413" lat="13.532853">
                <ele>111.169556</ele>
                <time>2006-10-22T04:07:51Z</time>
            </trkpt>
            <trkpt lon="99.350812" lat="13.533087">
                <ele>108.766235</ele>
                <time>2006-10-22T04:08:08Z</time>
            </trkpt>
            <trkpt lon="99.350228" lat="13.533265">
                <ele>107.805054</ele>
                <time>2006-10-22T04:08:24Z</time>
            </trkpt>
            <trkpt lon="99.349858" lat="13.533378">
                <ele>107.805054</ele>
                <time>2006-10-22T04:08:36Z</time>
            </trkpt>
            <trkpt lon="99.349469" lat="13.533428">
                <ele>109.246948</ele>
                <time>2006-10-22T04:08:48Z</time>
            </trkpt>
            <trkpt lon="99.348979" lat="13.533483">
                <ele>109.727661</ele>
                <time>2006-10-22T04:09:04Z</time>
            </trkpt>
            <trkpt lon="99.348988" lat="13.533491">
                <ele>110.208252</ele>
                <time>2006-10-22T04:09:14Z</time>
            </trkpt>
            <trkpt lon="99.349014" lat="13.533550">
                <ele>110.688843</ele>
                <time>2006-10-22T04:09:18Z</time>
            </trkpt>
            <trkpt lon="99.349019" lat="13.534030">
                <ele>111.169556</ele>
                <time>2006-10-22T04:09:36Z</time>
            </trkpt>
            <trkpt lon="99.349018" lat="13.534181">
                <ele>110.688843</ele>
                <time>2006-10-22T04:09:42Z</time>
            </trkpt>
            <trkpt lon="99.349049" lat="13.534210">
                <ele>110.688843</ele>
                <time>2006-10-22T04:09:47Z</time>
            </trkpt>
            <trkpt lon="99.349152" lat="13.534223">
                <ele>109.727661</ele>
                <time>2006-10-22T04:09:52Z</time>
            </trkpt>
            <trkpt lon="99.349812" lat="13.534182">
                <ele>106.363037</ele>
                <time>2006-10-22T04:10:11Z</time>
            </trkpt>
            <trkpt lon="99.349897" lat="13.534124">
                <ele>105.882446</ele>
                <time>2006-10-22T04:10:22Z</time>
            </trkpt>
            <trkpt lon="99.349892" lat="13.534099">
                <ele>107.805054</ele>
                <time>2006-10-22T04:10:46Z</time>
            </trkpt>
            <trkpt lon="99.349921" lat="13.534057">
                <ele>108.285645</ele>
                <time>2006-10-22T04:10:59Z</time>
            </trkpt>
            <trkpt lon="99.349960" lat="13.534034">
                <ele>107.805054</ele>
                <time>2006-10-22T04:11:10Z</time>
            </trkpt>
            <trkpt lon="99.350010" lat="13.534044">
                <ele>107.805054</ele>
                <time>2006-10-22T04:11:15Z</time>
            </trkpt>
            <trkpt lon="99.350073" lat="13.534149">
                <ele>107.805054</ele>
                <time>2006-10-22T04:11:28Z</time>
            </trkpt>
            <trkpt lon="99.350047" lat="13.534211">
                <ele>106.843628</ele>
                <time>2006-10-22T04:11:33Z</time>
            </trkpt>
            <trkpt lon="99.350059" lat="13.534308">
                <ele>106.843628</ele>
                <time>2006-10-22T04:11:39Z</time>
            </trkpt>
            <trkpt lon="99.350085" lat="13.534450">
                <ele>107.324341</ele>
                <time>2006-10-22T04:11:47Z</time>
            </trkpt>
            <trkpt lon="99.350067" lat="13.534825">
                <ele>108.766235</ele>
                <time>2006-10-22T04:12:01Z</time>
            </trkpt>
            <trkpt lon="99.350049" lat="13.535267">
                <ele>107.805054</ele>
                <time>2006-10-22T04:12:16Z</time>
            </trkpt>
            <trkpt lon="99.350062" lat="13.535695">
                <ele>107.805054</ele>
                <time>2006-10-22T04:12:32Z</time>
            </trkpt>
            <trkpt lon="99.350360" lat="13.535827">
                <ele>106.843628</ele>
                <time>2006-10-22T04:12:44Z</time>
            </trkpt>
            <trkpt lon="99.350710" lat="13.535940">
                <ele>105.882446</ele>
                <time>2006-10-22T04:12:58Z</time>
            </trkpt>
            <trkpt lon="99.350800" lat="13.535988">
                <ele>105.882446</ele>
                <time>2006-10-22T04:13:02Z</time>
            </trkpt>
            <trkpt lon="99.350905" lat="13.536009">
                <ele>105.401733</ele>
                <time>2006-10-22T04:13:09Z</time>
            </trkpt>
            <trkpt lon="99.351421" lat="13.535941">
                <ele>105.401733</ele>
                <time>2006-10-22T04:13:24Z</time>
            </trkpt>
            <trkpt lon="99.351825" lat="13.535909">
                <ele>104.921021</ele>
                <time>2006-10-22T04:13:37Z</time>
            </trkpt>
            <trkpt lon="99.351872" lat="13.535978">
                <ele>104.921021</ele>
                <time>2006-10-22T04:13:41Z</time>
            </trkpt>
            <trkpt lon="99.351940" lat="13.536268">
                <ele>105.401733</ele>
                <time>2006-10-22T04:13:54Z</time>
            </trkpt>
            <trkpt lon="99.352065" lat="13.536691">
                <ele>104.440430</ele>
                <time>2006-10-22T04:14:08Z</time>
            </trkpt>
            <trkpt lon="99.352081" lat="13.536709">
                <ele>104.440430</ele>
                <time>2006-10-22T04:14:09Z</time>
            </trkpt>
            <trkpt lon="99.352157" lat="13.536710">
                <ele>104.440430</ele>
                <time>2006-10-22T04:14:13Z</time>
            </trkpt>
            <trkpt lon="99.352460" lat="13.536772">
                <ele>104.921021</ele>
                <time>2006-10-22T04:14:26Z</time>
            </trkpt>
            <trkpt lon="99.352682" lat="13.536893">
                <ele>103.959717</ele>
                <time>2006-10-22T04:14:35Z</time>
            </trkpt>
            <trkpt lon="99.352888" lat="13.536868">
                <ele>103.479004</ele>
                <time>2006-10-22T04:14:45Z</time>
            </trkpt>
            <trkpt lon="99.353225" lat="13.537024">
                <ele>103.479004</ele>
                <time>2006-10-22T04:14:59Z</time>
            </trkpt>
            <trkpt lon="99.353296" lat="13.537079">
                <ele>103.479004</ele>
                <time>2006-10-22T04:15:02Z</time>
            </trkpt>
            <trkpt lon="99.353400" lat="13.537574">
                <ele>103.959717</ele>
                <time>2006-10-22T04:15:20Z</time>
            </trkpt>
            <trkpt lon="99.353410" lat="13.537898">
                <ele>103.959717</ele>
                <time>2006-10-22T04:15:34Z</time>
            </trkpt>
            <trkpt lon="99.353247" lat="13.537977">
                <ele>103.479004</ele>
                <time>2006-10-22T04:15:47Z</time>
            </trkpt>
            <trkpt lon="99.353251" lat="13.537993">
                <ele>102.998291</ele>
                <time>2006-10-22T04:16:05Z</time>
            </trkpt>
            <trkpt lon="99.353297" lat="13.538031">
                <ele>103.479004</ele>
                <time>2006-10-22T04:16:09Z</time>
            </trkpt>
            <trkpt lon="99.353685" lat="13.538416">
                <ele>105.882446</ele>
                <time>2006-10-22T04:16:24Z</time>
            </trkpt>
            <trkpt lon="99.353834" lat="13.538561">
                <ele>106.363037</ele>
                <time>2006-10-22T04:16:29Z</time>
            </trkpt>
            <trkpt lon="99.353962" lat="13.538587">
                <ele>105.882446</ele>
                <time>2006-10-22T04:16:32Z</time>
            </trkpt>
            <trkpt lon="99.354291" lat="13.538672">
                <ele>103.959717</ele>
                <time>2006-10-22T04:16:41Z</time>
            </trkpt>
            <trkpt lon="99.354258" lat="13.538949">
                <ele>104.921021</ele>
                <time>2006-10-22T04:16:54Z</time>
            </trkpt>
            <trkpt lon="99.354176" lat="13.539444">
                <ele>104.921021</ele>
                <time>2006-10-22T04:17:10Z</time>
            </trkpt>
            <trkpt lon="99.354073" lat="13.540064">
                <ele>103.959717</ele>
                <time>2006-10-22T04:17:26Z</time>
            </trkpt>
            <trkpt lon="99.354051" lat="13.540178">
                <ele>103.479004</ele>
                <time>2006-10-22T04:17:29Z</time>
            </trkpt>
            <trkpt lon="99.354183" lat="13.540243">
                <ele>103.479004</ele>
                <time>2006-10-22T04:17:39Z</time>
            </trkpt>
            <trkpt lon="99.354161" lat="13.540241">
                <ele>105.882446</ele>
                <time>2006-10-22T04:18:06Z</time>
            </trkpt>
            <trkpt lon="99.354184" lat="13.540275">
                <ele>109.246948</ele>
                <time>2006-10-22T04:21:36Z</time>
            </trkpt>
            <trkpt lon="99.354166" lat="13.540390">
                <ele>108.766235</ele>
                <time>2006-10-22T04:21:43Z</time>
            </trkpt>
            <trkpt lon="99.353916" lat="13.540742">
                <ele>105.882446</ele>
                <time>2006-10-22T04:21:57Z</time>
            </trkpt>
            <trkpt lon="99.353788" lat="13.541042">
                <ele>102.037109</ele>
                <time>2006-10-22T04:22:09Z</time>
            </trkpt>
            <trkpt lon="99.353958" lat="13.541344">
                <ele>99.633789</ele>
                <time>2006-10-22T04:22:21Z</time>
            </trkpt>
            <trkpt lon="99.354014" lat="13.541695">
                <ele>98.191895</ele>
                <time>2006-10-22T04:22:32Z</time>
            </trkpt>
            <trkpt lon="99.354116" lat="13.542037">
                <ele>98.191895</ele>
                <time>2006-10-22T04:22:43Z</time>
            </trkpt>
            <trkpt lon="99.354086" lat="13.542362">
                <ele>97.711182</ele>
                <time>2006-10-22T04:22:53Z</time>
            </trkpt>
            <trkpt lon="99.354136" lat="13.542699">
                <ele>96.749878</ele>
                <time>2006-10-22T04:23:06Z</time>
            </trkpt>
            <trkpt lon="99.353924" lat="13.542982">
                <ele>98.191895</ele>
                <time>2006-10-22T04:23:19Z</time>
            </trkpt>
            <trkpt lon="99.353866" lat="13.543369">
                <ele>95.788452</ele>
                <time>2006-10-22T04:23:32Z</time>
            </trkpt>
            <trkpt lon="99.353740" lat="13.543485">
                <ele>96.749878</ele>
                <time>2006-10-22T04:23:39Z</time>
            </trkpt>
            <trkpt lon="99.353738" lat="13.543617">
                <ele>97.230469</ele>
                <time>2006-10-22T04:23:49Z</time>
            </trkpt>
            <trkpt lon="99.353906" lat="13.543663">
                <ele>96.749878</ele>
                <time>2006-10-22T04:23:54Z</time>
            </trkpt>
            <trkpt lon="99.354841" lat="13.543797">
                <ele>96.269287</ele>
                <time>2006-10-22T04:24:15Z</time>
            </trkpt>
            <trkpt lon="99.355381" lat="13.543908">
                <ele>96.749878</ele>
                <time>2006-10-22T04:24:27Z</time>
            </trkpt>
            <trkpt lon="99.355301" lat="13.544184">
                <ele>100.595093</ele>
                <time>2006-10-22T04:24:37Z</time>
            </trkpt>
            <trkpt lon="99.355296" lat="13.544814">
                <ele>102.037109</ele>
                <time>2006-10-22T04:24:56Z</time>
            </trkpt>
            <trkpt lon="99.355340" lat="13.545555">
                <ele>102.517700</ele>
                <time>2006-10-22T04:25:13Z</time>
            </trkpt>
            <trkpt lon="99.355410" lat="13.546540">
                <ele>101.075684</ele>
                <time>2006-10-22T04:25:33Z</time>
            </trkpt>
            <trkpt lon="99.355373" lat="13.547403">
                <ele>103.479004</ele>
                <time>2006-10-22T04:25:50Z</time>
            </trkpt>
            <trkpt lon="99.355402" lat="13.547671">
                <ele>103.959717</ele>
                <time>2006-10-22T04:25:59Z</time>
            </trkpt>
            <trkpt lon="99.355363" lat="13.547668">
                <ele>103.479004</ele>
                <time>2006-10-22T04:26:05Z</time>
            </trkpt>
            <trkpt lon="99.355358" lat="13.547405">
                <ele>102.517700</ele>
                <time>2006-10-22T04:26:15Z</time>
            </trkpt>
            <trkpt lon="99.355371" lat="13.547351">
                <ele>102.037109</ele>
                <time>2006-10-22T04:26:17Z</time>
            </trkpt>
            <trkpt lon="99.355792" lat="13.547282">
                <ele>100.595093</ele>
                <time>2006-10-22T04:26:29Z</time>
            </trkpt>
            <trkpt lon="99.356176" lat="13.547227">
                <ele>101.556396</ele>
                <time>2006-10-22T04:26:41Z</time>
            </trkpt>
            <trkpt lon="99.356274" lat="13.547349">
                <ele>101.556396</ele>
                <time>2006-10-22T04:26:46Z</time>
            </trkpt>
            <trkpt lon="99.356446" lat="13.548031">
                <ele>101.075684</ele>
                <time>2006-10-22T04:27:04Z</time>
            </trkpt>
            <trkpt lon="99.356500" lat="13.548164">
                <ele>102.037109</ele>
                <time>2006-10-22T04:27:08Z</time>
            </trkpt>
            <trkpt lon="99.356888" lat="13.548095">
                <ele>101.556396</ele>
                <time>2006-10-22T04:27:21Z</time>
            </trkpt>
            <trkpt lon="99.357289" lat="13.548051">
                <ele>100.114502</ele>
                <time>2006-10-22T04:27:33Z</time>
            </trkpt>
            <trkpt lon="99.357468" lat="13.548483">
                <ele>100.114502</ele>
                <time>2006-10-22T04:27:46Z</time>
            </trkpt>
            <trkpt lon="99.357496" lat="13.548563">
                <ele>100.114502</ele>
                <time>2006-10-22T04:27:48Z</time>
            </trkpt>
            <trkpt lon="99.357511" lat="13.548643">
                <ele>100.114502</ele>
                <time>2006-10-22T04:27:50Z</time>
            </trkpt>
            <trkpt lon="99.357542" lat="13.548765">
                <ele>100.114502</ele>
                <time>2006-10-22T04:27:53Z</time>
            </trkpt>
            <trkpt lon="99.357765" lat="13.549065">
                <ele>100.114502</ele>
                <time>2006-10-22T04:28:05Z</time>
            </trkpt>
            <trkpt lon="99.358159" lat="13.549187">
                <ele>100.595093</ele>
                <time>2006-10-22T04:28:20Z</time>
            </trkpt>
            <trkpt lon="99.358582" lat="13.549406">
                <ele>102.998291</ele>
                <time>2006-10-22T04:28:37Z</time>
            </trkpt>
            <trkpt lon="99.359073" lat="13.549508">
                <ele>104.921021</ele>
                <time>2006-10-22T04:28:55Z</time>
            </trkpt>
            <trkpt lon="99.359442" lat="13.549254">
                <ele>107.324341</ele>
                <time>2006-10-22T04:29:10Z</time>
            </trkpt>
            <trkpt lon="99.359490" lat="13.549238">
                <ele>107.324341</ele>
                <time>2006-10-22T04:29:12Z</time>
            </trkpt>
            <trkpt lon="99.359642" lat="13.549490">
                <ele>108.766235</ele>
                <time>2006-10-22T04:29:24Z</time>
            </trkpt>
            <trkpt lon="99.359886" lat="13.549926">
                <ele>110.208252</ele>
                <time>2006-10-22T04:29:41Z</time>
            </trkpt>
            <trkpt lon="99.360236" lat="13.550550">
                <ele>110.208252</ele>
                <time>2006-10-22T04:30:02Z</time>
            </trkpt>
            <trkpt lon="99.360361" lat="13.550778">
                <ele>112.130981</ele>
                <time>2006-10-22T04:30:17Z</time>
            </trkpt>
            <trkpt lon="99.360358" lat="13.550758">
                <ele>113.092285</ele>
                <time>2006-10-22T04:31:33Z</time>
            </trkpt>
            <trkpt lon="99.360375" lat="13.550755">
                <ele>113.092285</ele>
                <time>2006-10-22T04:43:17Z</time>
            </trkpt>
            <trkpt lon="99.360543" lat="13.551059">
                <ele>112.130981</ele>
                <time>2006-10-22T04:43:29Z</time>
            </trkpt>
            <trkpt lon="99.360612" lat="13.551222">
                <ele>112.130981</ele>
                <time>2006-10-22T04:43:33Z</time>
            </trkpt>
            <trkpt lon="99.360880" lat="13.551620">
                <ele>110.208252</ele>
                <time>2006-10-22T04:43:44Z</time>
            </trkpt>
            <trkpt lon="99.360973" lat="13.551560">
                <ele>109.727661</ele>
                <time>2006-10-22T04:43:49Z</time>
            </trkpt>
            <trkpt lon="99.360970" lat="13.550995">
                <ele>109.727661</ele>
                <time>2006-10-22T04:44:05Z</time>
            </trkpt>
            <trkpt lon="99.360967" lat="13.550302">
                <ele>111.650269</ele>
                <time>2006-10-22T04:44:24Z</time>
            </trkpt>
            <trkpt lon="99.360961" lat="13.549667">
                <ele>112.611572</ele>
                <time>2006-10-22T04:44:40Z</time>
            </trkpt>
            <trkpt lon="99.360944" lat="13.548823">
                <ele>112.611572</ele>
                <time>2006-10-22T04:44:59Z</time>
            </trkpt>
            <trkpt lon="99.360951" lat="13.547801">
                <ele>110.688843</ele>
                <time>2006-10-22T04:45:17Z</time>
            </trkpt>
            <trkpt lon="99.360927" lat="13.546717">
                <ele>111.169556</ele>
                <time>2006-10-22T04:45:35Z</time>
            </trkpt>
            <trkpt lon="99.360953" lat="13.546503">
                <ele>112.130981</ele>
                <time>2006-10-22T04:45:40Z</time>
            </trkpt>
            <trkpt lon="99.360972" lat="13.545593">
                <ele>114.053589</ele>
                <time>2006-10-22T04:46:03Z</time>
            </trkpt>
            <trkpt lon="99.361021" lat="13.544880">
                <ele>112.611572</ele>
                <time>2006-10-22T04:46:19Z</time>
            </trkpt>
            <trkpt lon="99.360961" lat="13.544665">
                <ele>112.130981</ele>
                <time>2006-10-22T04:46:25Z</time>
            </trkpt>
            <trkpt lon="99.360264" lat="13.544531">
                <ele>110.688843</ele>
                <time>2006-10-22T04:46:38Z</time>
            </trkpt>
            <trkpt lon="99.359556" lat="13.544407">
                <ele>109.246948</ele>
                <time>2006-10-22T04:46:51Z</time>
            </trkpt>
            <trkpt lon="99.359534" lat="13.544278">
                <ele>108.766235</ele>
                <time>2006-10-22T04:46:55Z</time>
            </trkpt>
            <trkpt lon="99.359549" lat="13.544086">
                <ele>108.285645</ele>
                <time>2006-10-22T04:46:59Z</time>
            </trkpt>
            <trkpt lon="99.359546" lat="13.543927">
                <ele>107.805054</ele>
                <time>2006-10-22T04:47:02Z</time>
            </trkpt>
            <trkpt lon="99.359443" lat="13.543083">
                <ele>104.921021</ele>
                <time>2006-10-22T04:47:16Z</time>
            </trkpt>
            <trkpt lon="99.359352" lat="13.542387">
                <ele>102.037109</ele>
                <time>2006-10-22T04:47:27Z</time>
            </trkpt>
            <trkpt lon="99.359458" lat="13.542197">
                <ele>102.037109</ele>
                <time>2006-10-22T04:47:34Z</time>
            </trkpt>
            <trkpt lon="99.359919" lat="13.542104">
                <ele>102.998291</ele>
                <time>2006-10-22T04:47:48Z</time>
            </trkpt>
            <trkpt lon="99.360385" lat="13.542001">
                <ele>104.440430</ele>
                <time>2006-10-22T04:48:02Z</time>
            </trkpt>
            <trkpt lon="99.360926" lat="13.541958">
                <ele>105.401733</ele>
                <time>2006-10-22T04:48:20Z</time>
            </trkpt>
            <trkpt lon="99.360949" lat="13.541941">
                <ele>105.882446</ele>
                <time>2006-10-22T04:48:21Z</time>
            </trkpt>
            <trkpt lon="99.360968" lat="13.541442">
                <ele>105.401733</ele>
                <time>2006-10-22T04:48:35Z</time>
            </trkpt>
            <trkpt lon="99.360979" lat="13.540429">
                <ele>103.479004</ele>
                <time>2006-10-22T04:48:55Z</time>
            </trkpt>
            <trkpt lon="99.360976" lat="13.540146">
                <ele>102.037109</ele>
                <time>2006-10-22T04:49:00Z</time>
            </trkpt>
            <trkpt lon="99.361033" lat="13.539903">
                <ele>99.633789</ele>
                <time>2006-10-22T04:49:06Z</time>
            </trkpt>
            <trkpt lon="99.361317" lat="13.539484">
                <ele>98.191895</ele>
                <time>2006-10-22T04:49:19Z</time>
            </trkpt>
            <trkpt lon="99.361569" lat="13.539141">
                <ele>96.749878</ele>
                <time>2006-10-22T04:49:31Z</time>
            </trkpt>
            <trkpt lon="99.361777" lat="13.538804">
                <ele>97.711182</ele>
                <time>2006-10-22T04:49:45Z</time>
            </trkpt>
            <trkpt lon="99.362018" lat="13.538449">
                <ele>99.153076</ele>
                <time>2006-10-22T04:50:01Z</time>
            </trkpt>
            <trkpt lon="99.362263" lat="13.538061">
                <ele>100.114502</ele>
                <time>2006-10-22T04:50:17Z</time>
            </trkpt>
            <trkpt lon="99.362481" lat="13.537712">
                <ele>101.556396</ele>
                <time>2006-10-22T04:50:33Z</time>
            </trkpt>
            <trkpt lon="99.362687" lat="13.537239">
                <ele>99.633789</ele>
                <time>2006-10-22T04:50:48Z</time>
            </trkpt>
            <trkpt lon="99.362711" lat="13.537200">
                <ele>99.633789</ele>
                <time>2006-10-22T04:50:51Z</time>
            </trkpt>
            <trkpt lon="99.362742" lat="13.537177">
                <ele>101.075684</ele>
                <time>2006-10-22T04:51:07Z</time>
            </trkpt>
            <trkpt lon="99.362726" lat="13.537205">
                <ele>101.556396</ele>
                <time>2006-10-22T04:51:20Z</time>
            </trkpt>
            <trkpt lon="99.362734" lat="13.537189">
                <ele>101.556396</ele>
                <time>2006-10-22T04:51:22Z</time>
            </trkpt>
            <trkpt lon="99.362815" lat="13.537103">
                <ele>102.517700</ele>
                <time>2006-10-22T04:51:28Z</time>
            </trkpt>
            <trkpt lon="99.362977" lat="13.536846">
                <ele>101.556396</ele>
                <time>2006-10-22T04:51:41Z</time>
            </trkpt>
            <trkpt lon="99.363113" lat="13.536590">
                <ele>100.114502</ele>
                <time>2006-10-22T04:51:53Z</time>
            </trkpt>
            <trkpt lon="99.363337" lat="13.536478">
                <ele>99.633789</ele>
                <time>2006-10-22T04:52:04Z</time>
            </trkpt>
            <trkpt lon="99.363717" lat="13.536517">
                <ele>101.075684</ele>
                <time>2006-10-22T04:52:17Z</time>
            </trkpt>
            <trkpt lon="99.364186" lat="13.536628">
                <ele>102.037109</ele>
                <time>2006-10-22T04:52:34Z</time>
            </trkpt>
            <trkpt lon="99.364550" lat="13.536738">
                <ele>103.479004</ele>
                <time>2006-10-22T04:52:49Z</time>
            </trkpt>
            <trkpt lon="99.364759" lat="13.536717">
                <ele>104.440430</ele>
                <time>2006-10-22T04:52:59Z</time>
            </trkpt>
            <trkpt lon="99.364856" lat="13.536697">
                <ele>104.440430</ele>
                <time>2006-10-22T04:53:04Z</time>
            </trkpt>
            <trkpt lon="99.364932" lat="13.536654">
                <ele>104.440430</ele>
                <time>2006-10-22T04:53:09Z</time>
            </trkpt>
            <trkpt lon="99.365140" lat="13.536469">
                <ele>104.440430</ele>
                <time>2006-10-22T04:53:24Z</time>
            </trkpt>
            <trkpt lon="99.365364" lat="13.536450">
                <ele>104.921021</ele>
                <time>2006-10-22T04:53:36Z</time>
            </trkpt>
            <trkpt lon="99.365482" lat="13.536354">
                <ele>104.921021</ele>
                <time>2006-10-22T04:53:50Z</time>
            </trkpt>
            <trkpt lon="99.365550" lat="13.536271">
                <ele>105.401733</ele>
                <time>2006-10-22T04:53:58Z</time>
            </trkpt>
            <trkpt lon="99.365675" lat="13.536137">
                <ele>104.921021</ele>
                <time>2006-10-22T04:54:09Z</time>
            </trkpt>
            <trkpt lon="99.365709" lat="13.535833">
                <ele>104.440430</ele>
                <time>2006-10-22T04:54:22Z</time>
            </trkpt>
            <trkpt lon="99.365712" lat="13.535775">
                <ele>105.401733</ele>
                <time>2006-10-22T04:54:33Z</time>
            </trkpt>
            <trkpt lon="99.365688" lat="13.535745">
                <ele>105.882446</ele>
                <time>2006-10-22T04:54:43Z</time>
            </trkpt>
            <trkpt lon="99.365673" lat="13.535707">
                <ele>103.959717</ele>
                <time>2006-10-22T04:54:47Z</time>
            </trkpt>
            <trkpt lon="99.365676" lat="13.535586">
                <ele>103.479004</ele>
                <time>2006-10-22T04:55:02Z</time>
            </trkpt>
            <trkpt lon="99.365689" lat="13.535533">
                <ele>105.882446</ele>
                <time>2006-10-22T04:55:15Z</time>
            </trkpt>
            <trkpt lon="99.365700" lat="13.535524">
                <ele>105.882446</ele>
                <time>2006-10-22T04:55:17Z</time>
            </trkpt>
            <trkpt lon="99.365707" lat="13.535503">
                <ele>105.882446</ele>
                <time>2006-10-22T04:55:19Z</time>
            </trkpt>
            <trkpt lon="99.365687" lat="13.535460">
                <ele>104.921021</ele>
                <time>2006-10-22T04:55:30Z</time>
            </trkpt>
            <trkpt lon="99.365594" lat="13.535425">
                <ele>104.921021</ele>
                <time>2006-10-22T04:55:36Z</time>
            </trkpt>
            <trkpt lon="99.365344" lat="13.535248">
                <ele>104.921021</ele>
                <time>2006-10-22T04:55:51Z</time>
            </trkpt>
            <trkpt lon="99.365137" lat="13.535070">
                <ele>104.440430</ele>
                <time>2006-10-22T04:56:04Z</time>
            </trkpt>
            <trkpt lon="99.365020" lat="13.535032">
                <ele>104.440430</ele>
                <time>2006-10-22T04:56:10Z</time>
            </trkpt>
            <trkpt lon="99.364870" lat="13.534923">
                <ele>104.921021</ele>
                <time>2006-10-22T04:56:21Z</time>
            </trkpt>
            <trkpt lon="99.364857" lat="13.534884">
                <ele>104.921021</ele>
                <time>2006-10-22T04:56:23Z</time>
            </trkpt>
            <trkpt lon="99.364830" lat="13.534770">
                <ele>104.921021</ele>
                <time>2006-10-22T04:56:29Z</time>
            </trkpt>
            <trkpt lon="99.364832" lat="13.534577">
                <ele>104.440430</ele>
                <time>2006-10-22T04:56:39Z</time>
            </trkpt>
            <trkpt lon="99.364848" lat="13.534564">
                <ele>104.440430</ele>
                <time>2006-10-22T04:56:40Z</time>
            </trkpt>
            <trkpt lon="99.365212" lat="13.534558">
                <ele>105.401733</ele>
                <time>2006-10-22T04:56:54Z</time>
            </trkpt>
            <trkpt lon="99.365384" lat="13.534350">
                <ele>105.401733</ele>
                <time>2006-10-22T04:57:06Z</time>
            </trkpt>
            <trkpt lon="99.365652" lat="13.534353">
                <ele>105.882446</ele>
                <time>2006-10-22T04:57:18Z</time>
            </trkpt>
            <trkpt lon="99.365742" lat="13.534412">
                <ele>105.882446</ele>
                <time>2006-10-22T04:57:22Z</time>
            </trkpt>
            <trkpt lon="99.366095" lat="13.534423">
                <ele>107.324341</ele>
                <time>2006-10-22T04:57:35Z</time>
            </trkpt>
            <trkpt lon="99.366423" lat="13.534432">
                <ele>107.805054</ele>
                <time>2006-10-22T04:57:47Z</time>
            </trkpt>
            <trkpt lon="99.366897" lat="13.534520">
                <ele>107.324341</ele>
                <time>2006-10-22T04:58:03Z</time>
            </trkpt>
            <trkpt lon="99.367103" lat="13.534668">
                <ele>105.401733</ele>
                <time>2006-10-22T04:58:13Z</time>
            </trkpt>
            <trkpt lon="99.367116" lat="13.534759">
                <ele>105.401733</ele>
                <time>2006-10-22T04:58:24Z</time>
            </trkpt>
            <trkpt lon="99.367276" lat="13.534847">
                <ele>105.882446</ele>
                <time>2006-10-22T04:58:40Z</time>
            </trkpt>
            <trkpt lon="99.367534" lat="13.535028">
                <ele>108.285645</ele>
                <time>2006-10-22T04:58:54Z</time>
            </trkpt>
            <trkpt lon="99.367824" lat="13.535096">
                <ele>109.246948</ele>
                <time>2006-10-22T04:59:06Z</time>
            </trkpt>
            <trkpt lon="99.368134" lat="13.535135">
                <ele>112.130981</ele>
                <time>2006-10-22T04:59:20Z</time>
            </trkpt>
            <trkpt lon="99.368608" lat="13.535188">
                <ele>114.534180</ele>
                <time>2006-10-22T04:59:40Z</time>
            </trkpt>
            <trkpt lon="99.368768" lat="13.535224">
                <ele>116.456787</ele>
                <time>2006-10-22T04:59:51Z</time>
            </trkpt>
            <trkpt lon="99.368818" lat="13.535111">
                <ele>115.495605</ele>
                <time>2006-10-22T04:59:58Z</time>
            </trkpt>
            <trkpt lon="99.368768" lat="13.534478">
                <ele>114.534180</ele>
                <time>2006-10-22T05:00:15Z</time>
            </trkpt>
            <trkpt lon="99.368763" lat="13.534105">
                <ele>114.053589</ele>
                <time>2006-10-22T05:00:23Z</time>
            </trkpt>
            <trkpt lon="99.368723" lat="13.533316">
                <ele>115.014893</ele>
                <time>2006-10-22T05:00:40Z</time>
            </trkpt>
            <trkpt lon="99.368703" lat="13.532689">
                <ele>118.379395</ele>
                <time>2006-10-22T05:00:58Z</time>
            </trkpt>
            <trkpt lon="99.368635" lat="13.532134">
                <ele>119.821411</ele>
                <time>2006-10-22T05:01:15Z</time>
            </trkpt>
            <trkpt lon="99.368339" lat="13.531318">
                <ele>119.340820</ele>
                <time>2006-10-22T05:01:34Z</time>
            </trkpt>
            <trkpt lon="99.367880" lat="13.530086">
                <ele>115.495605</ele>
                <time>2006-10-22T05:01:54Z</time>
            </trkpt>
            <trkpt lon="99.367439" lat="13.528812">
                <ele>111.650269</ele>
                <time>2006-10-22T05:02:12Z</time>
            </trkpt>
            <trkpt lon="99.367178" lat="13.527493">
                <ele>106.843628</ele>
                <time>2006-10-22T05:02:30Z</time>
            </trkpt>
            <trkpt lon="99.367018" lat="13.526487">
                <ele>102.998291</ele>
                <time>2006-10-22T05:02:45Z</time>
            </trkpt>
            <trkpt lon="99.367009" lat="13.526470">
                <ele>102.517700</ele>
                <time>2006-10-22T05:02:46Z</time>
            </trkpt>
            <trkpt lon="99.366996" lat="13.526602">
                <ele>102.037109</ele>
                <time>2006-10-22T05:02:53Z</time>
            </trkpt>
            <trkpt lon="99.367040" lat="13.526721">
                <ele>102.517700</ele>
                <time>2006-10-22T05:02:57Z</time>
            </trkpt>
            <trkpt lon="99.367117" lat="13.527215">
                <ele>103.479004</ele>
                <time>2006-10-22T05:03:14Z</time>
            </trkpt>
            <trkpt lon="99.367189" lat="13.527816">
                <ele>105.401733</ele>
                <time>2006-10-22T05:03:33Z</time>
            </trkpt>
            <trkpt lon="99.367309" lat="13.528456">
                <ele>107.324341</ele>
                <time>2006-10-22T05:03:53Z</time>
            </trkpt>
            <trkpt lon="99.367489" lat="13.529086">
                <ele>109.246948</ele>
                <time>2006-10-22T05:04:13Z</time>
            </trkpt>
            <trkpt lon="99.367563" lat="13.529150">
                <ele>109.727661</ele>
                <time>2006-10-22T05:04:16Z</time>
            </trkpt>
            <trkpt lon="99.368082" lat="13.529020">
                <ele>113.092285</ele>
                <time>2006-10-22T05:04:33Z</time>
            </trkpt>
            <trkpt lon="99.368684" lat="13.528829">
                <ele>115.976196</ele>
                <time>2006-10-22T05:04:53Z</time>
            </trkpt>
            <trkpt lon="99.369433" lat="13.528678">
                <ele>116.937500</ele>
                <time>2006-10-22T05:05:14Z</time>
            </trkpt>
            <trkpt lon="99.370319" lat="13.528607">
                <ele>117.418213</ele>
                <time>2006-10-22T05:05:36Z</time>
            </trkpt>
            <trkpt lon="99.371257" lat="13.528506">
                <ele>117.418213</ele>
                <time>2006-10-22T05:05:56Z</time>
            </trkpt>
            <trkpt lon="99.372416" lat="13.528278">
                <ele>116.937500</ele>
                <time>2006-10-22T05:06:20Z</time>
            </trkpt>
            <trkpt lon="99.373459" lat="13.527899">
                <ele>118.379395</ele>
                <time>2006-10-22T05:06:45Z</time>
            </trkpt>
            <trkpt lon="99.374070" lat="13.527658">
                <ele>120.302124</ele>
                <time>2006-10-22T05:07:02Z</time>
            </trkpt>
            <trkpt lon="99.374996" lat="13.527350">
                <ele>122.224731</ele>
                <time>2006-10-22T05:07:26Z</time>
            </trkpt>
            <trkpt lon="99.375320" lat="13.527464">
                <ele>122.224731</ele>
                <time>2006-10-22T05:07:37Z</time>
            </trkpt>
            <trkpt lon="99.375397" lat="13.528102">
                <ele>121.263550</ele>
                <time>2006-10-22T05:07:56Z</time>
            </trkpt>
            <trkpt lon="99.375491" lat="13.528671">
                <ele>121.744141</ele>
                <time>2006-10-22T05:08:13Z</time>
            </trkpt>
            <trkpt lon="99.375707" lat="13.528751">
                <ele>123.186157</ele>
                <time>2006-10-22T05:08:21Z</time>
            </trkpt>
            <trkpt lon="99.376273" lat="13.528661">
                <ele>124.147339</ele>
                <time>2006-10-22T05:08:38Z</time>
            </trkpt>
            <trkpt lon="99.377121" lat="13.528473">
                <ele>124.147339</ele>
                <time>2006-10-22T05:08:58Z</time>
            </trkpt>
            <trkpt lon="99.378138" lat="13.528210">
                <ele>125.589355</ele>
                <time>2006-10-22T05:09:21Z</time>
            </trkpt>
            <trkpt lon="99.378632" lat="13.528051">
                <ele>126.550659</ele>
                <time>2006-10-22T05:09:33Z</time>
            </trkpt>
            <trkpt lon="99.378710" lat="13.527920">
                <ele>125.589355</ele>
                <time>2006-10-22T05:09:37Z</time>
            </trkpt>
            <trkpt lon="99.379289" lat="13.527596">
                <ele>126.069946</ele>
                <time>2006-10-22T05:09:53Z</time>
            </trkpt>
            <trkpt lon="99.379466" lat="13.527380">
                <ele>126.069946</ele>
                <time>2006-10-22T05:10:00Z</time>
            </trkpt>
            <trkpt lon="99.379607" lat="13.527254">
                <ele>126.069946</ele>
                <time>2006-10-22T05:10:05Z</time>
            </trkpt>
            <trkpt lon="99.379947" lat="13.527170">
                <ele>125.589355</ele>
                <time>2006-10-22T05:10:18Z</time>
            </trkpt>
            <trkpt lon="99.379932" lat="13.527175">
                <ele>126.069946</ele>
                <time>2006-10-22T05:10:32Z</time>
            </trkpt>
            <trkpt lon="99.379557" lat="13.527278">
                <ele>126.550659</ele>
                <time>2006-10-22T05:10:44Z</time>
            </trkpt>
            <trkpt lon="99.379525" lat="13.527301">
                <ele>126.550659</ele>
                <time>2006-10-22T05:10:45Z</time>
            </trkpt>
            <trkpt lon="99.379412" lat="13.527493">
                <ele>125.589355</ele>
                <time>2006-10-22T05:10:50Z</time>
            </trkpt>
            <trkpt lon="99.379262" lat="13.527591">
                <ele>125.589355</ele>
                <time>2006-10-22T05:10:54Z</time>
            </trkpt>
            <trkpt lon="99.378704" lat="13.527884">
                <ele>125.589355</ele>
                <time>2006-10-22T05:11:08Z</time>
            </trkpt>
            <trkpt lon="99.378633" lat="13.527756">
                <ele>126.069946</ele>
                <time>2006-10-22T05:11:14Z</time>
            </trkpt>
            <trkpt lon="99.378773" lat="13.527091">
                <ele>126.069946</ele>
                <time>2006-10-22T05:11:33Z</time>
            </trkpt>
            <trkpt lon="99.378954" lat="13.526178">
                <ele>125.589355</ele>
                <time>2006-10-22T05:11:54Z</time>
            </trkpt>
            <trkpt lon="99.378906" lat="13.525250">
                <ele>124.628052</ele>
                <time>2006-10-22T05:12:14Z</time>
            </trkpt>
            <trkpt lon="99.378818" lat="13.524516">
                <ele>123.186157</ele>
                <time>2006-10-22T05:12:33Z</time>
            </trkpt>
            <trkpt lon="99.378810" lat="13.524503">
                <ele>122.705444</ele>
                <time>2006-10-22T05:12:34Z</time>
            </trkpt>
            <trkpt lon="99.378556" lat="13.524544">
                <ele>121.744141</ele>
                <time>2006-10-22T05:12:43Z</time>
            </trkpt>
            <trkpt lon="99.377705" lat="13.524689">
                <ele>120.302124</ele>
                <time>2006-10-22T05:12:59Z</time>
            </trkpt>
            <trkpt lon="99.376764" lat="13.524853">
                <ele>118.860107</ele>
                <time>2006-10-22T05:13:16Z</time>
            </trkpt>
            <trkpt lon="99.375798" lat="13.525022">
                <ele>116.456787</ele>
                <time>2006-10-22T05:13:32Z</time>
            </trkpt>
            <trkpt lon="99.375565" lat="13.525051">
                <ele>115.976196</ele>
                <time>2006-10-22T05:13:36Z</time>
            </trkpt>
            <trkpt lon="99.375207" lat="13.524993">
                <ele>115.976196</ele>
                <time>2006-10-22T05:13:45Z</time>
            </trkpt>
            <trkpt lon="99.374713" lat="13.524917">
                <ele>116.456787</ele>
                <time>2006-10-22T05:13:59Z</time>
            </trkpt>
            <trkpt lon="99.374577" lat="13.524879">
                <ele>116.456787</ele>
                <time>2006-10-22T05:14:04Z</time>
            </trkpt>
            <trkpt lon="99.374419" lat="13.524688">
                <ele>116.456787</ele>
                <time>2006-10-22T05:14:13Z</time>
            </trkpt>
            <trkpt lon="99.373684" lat="13.524397">
                <ele>117.418213</ele>
                <time>2006-10-22T05:14:32Z</time>
            </trkpt>
            <trkpt lon="99.372925" lat="13.524091">
                <ele>118.379395</ele>
                <time>2006-10-22T05:14:52Z</time>
            </trkpt>
            <trkpt lon="99.372395" lat="13.523827">
                <ele>120.302124</ele>
                <time>2006-10-22T05:15:09Z</time>
            </trkpt>
            <trkpt lon="99.372443" lat="13.523717">
                <ele>120.782837</ele>
                <time>2006-10-22T05:15:14Z</time>
            </trkpt>
            <trkpt lon="99.372632" lat="13.523240">
                <ele>121.263550</ele>
                <time>2006-10-22T05:15:32Z</time>
            </trkpt>
            <trkpt lon="99.372840" lat="13.522694">
                <ele>118.860107</ele>
                <time>2006-10-22T05:15:52Z</time>
            </trkpt>
            <trkpt lon="99.373124" lat="13.522002">
                <ele>119.821411</ele>
                <time>2006-10-22T05:16:13Z</time>
            </trkpt>
            <trkpt lon="99.373282" lat="13.521523">
                <ele>120.782837</ele>
                <time>2006-10-22T05:16:28Z</time>
            </trkpt>
            <trkpt lon="99.373154" lat="13.521459">
                <ele>121.744141</ele>
                <time>2006-10-22T05:16:33Z</time>
            </trkpt>
            <trkpt lon="99.372613" lat="13.521409">
                <ele>125.108765</ele>
                <time>2006-10-22T05:16:48Z</time>
            </trkpt>
            <trkpt lon="99.372580" lat="13.521397">
                <ele>125.108765</ele>
                <time>2006-10-22T05:16:49Z</time>
            </trkpt>
            <trkpt lon="99.372512" lat="13.520997">
                <ele>126.069946</ele>
                <time>2006-10-22T05:17:00Z</time>
            </trkpt>
            <trkpt lon="99.372479" lat="13.520459">
                <ele>126.069946</ele>
                <time>2006-10-22T05:17:12Z</time>
            </trkpt>
            <trkpt lon="99.372474" lat="13.520286">
                <ele>126.069946</ele>
                <time>2006-10-22T05:17:16Z</time>
            </trkpt>
            <trkpt lon="99.372381" lat="13.519476">
                <ele>124.147339</ele>
                <time>2006-10-22T05:17:32Z</time>
            </trkpt>
            <trkpt lon="99.372425" lat="13.519213">
                <ele>123.186157</ele>
                <time>2006-10-22T05:17:38Z</time>
            </trkpt>
            <trkpt lon="99.372285" lat="13.519162">
                <ele>121.744141</ele>
                <time>2006-10-22T05:17:44Z</time>
            </trkpt>
            <trkpt lon="99.372264" lat="13.519160">
                <ele>121.263550</ele>
                <time>2006-10-22T05:17:58Z</time>
            </trkpt>
            <trkpt lon="99.372265" lat="13.519160">
                <ele>121.263550</ele>
                <time>2006-10-22T05:18:20Z</time>
            </trkpt>
            <trkpt lon="99.372148" lat="13.519162">
                <ele>120.782837</ele>
                <time>2006-10-22T05:18:25Z</time>
            </trkpt>
            <trkpt lon="99.371286" lat="13.519112">
                <ele>117.418213</ele>
                <time>2006-10-22T05:18:41Z</time>
            </trkpt>
            <trkpt lon="99.370115" lat="13.519034">
                <ele>112.611572</ele>
                <time>2006-10-22T05:18:59Z</time>
            </trkpt>
            <trkpt lon="99.369910" lat="13.519031">
                <ele>112.130981</ele>
                <time>2006-10-22T05:19:02Z</time>
            </trkpt>
            <trkpt lon="99.368815" lat="13.518955">
                <ele>109.246948</ele>
                <time>2006-10-22T05:19:18Z</time>
            </trkpt>
            <trkpt lon="99.367903" lat="13.518884">
                <ele>109.727661</ele>
                <time>2006-10-22T05:19:33Z</time>
            </trkpt>
            <trkpt lon="99.367024" lat="13.518833">
                <ele>111.650269</ele>
                <time>2006-10-22T05:19:52Z</time>
            </trkpt>
            <trkpt lon="99.366009" lat="13.518770">
                <ele>113.572998</ele>
                <time>2006-10-22T05:20:14Z</time>
            </trkpt>
            <trkpt lon="99.365244" lat="13.518715">
                <ele>115.495605</ele>
                <time>2006-10-22T05:20:35Z</time>
            </trkpt>
            <trkpt lon="99.364439" lat="13.518654">
                <ele>115.014893</ele>
                <time>2006-10-22T05:20:53Z</time>
            </trkpt>
            <trkpt lon="99.363353" lat="13.518590">
                <ele>111.650269</ele>
                <time>2006-10-22T05:21:11Z</time>
            </trkpt>
            <trkpt lon="99.362396" lat="13.518530">
                <ele>112.130981</ele>
                <time>2006-10-22T05:21:28Z</time>
            </trkpt>
            <trkpt lon="99.361670" lat="13.518481">
                <ele>115.014893</ele>
                <time>2006-10-22T05:21:47Z</time>
            </trkpt>
            <trkpt lon="99.361062" lat="13.518417">
                <ele>116.937500</ele>
                <time>2006-10-22T05:22:04Z</time>
            </trkpt>
            <trkpt lon="99.361030" lat="13.518274">
                <ele>117.418213</ele>
                <time>2006-10-22T05:22:08Z</time>
            </trkpt>
            <trkpt lon="99.361044" lat="13.517443">
                <ele>117.418213</ele>
                <time>2006-10-22T05:22:27Z</time>
            </trkpt>
            <trkpt lon="99.361047" lat="13.516276">
                <ele>117.418213</ele>
                <time>2006-10-22T05:22:50Z</time>
            </trkpt>
            <trkpt lon="99.361050" lat="13.515072">
                <ele>116.937500</ele>
                <time>2006-10-22T05:23:11Z</time>
            </trkpt>
            <trkpt lon="99.361032" lat="13.513978">
                <ele>115.976196</ele>
                <time>2006-10-22T05:23:29Z</time>
            </trkpt>
            <trkpt lon="99.361029" lat="13.513809">
                <ele>115.976196</ele>
                <time>2006-10-22T05:23:32Z</time>
            </trkpt>
            <trkpt lon="99.360766" lat="13.513681">
                <ele>114.534180</ele>
                <time>2006-10-22T05:23:38Z</time>
            </trkpt>
            <trkpt lon="99.360702" lat="13.513699">
                <ele>114.534180</ele>
                <time>2006-10-22T05:23:39Z</time>
            </trkpt>
            <trkpt lon="99.359375" lat="13.514006">
                <ele>113.572998</ele>
                <time>2006-10-22T05:24:00Z</time>
            </trkpt>
            <trkpt lon="99.358572" lat="13.513951">
                <ele>112.611572</ele>
                <time>2006-10-22T05:24:12Z</time>
            </trkpt>
            <trkpt lon="99.358087" lat="13.514006">
                <ele>112.130981</ele>
                <time>2006-10-22T05:24:19Z</time>
            </trkpt>
            <trkpt lon="99.357838" lat="13.513973">
                <ele>112.130981</ele>
                <time>2006-10-22T05:24:23Z</time>
            </trkpt>
            <trkpt lon="99.357735" lat="13.513936">
                <ele>112.130981</ele>
                <time>2006-10-22T05:24:25Z</time>
            </trkpt>
            <trkpt lon="99.357239" lat="13.513475">
                <ele>112.130981</ele>
                <time>2006-10-22T05:24:37Z</time>
            </trkpt>
            <trkpt lon="99.356534" lat="13.512758">
                <ele>112.130981</ele>
                <time>2006-10-22T05:24:55Z</time>
            </trkpt>
            <trkpt lon="99.356252" lat="13.512712">
                <ele>112.611572</ele>
                <time>2006-10-22T05:25:02Z</time>
            </trkpt>
            <trkpt lon="99.356008" lat="13.512818">
                <ele>112.130981</ele>
                <time>2006-10-22T05:25:08Z</time>
            </trkpt>
            <trkpt lon="99.355915" lat="13.513098">
                <ele>112.130981</ele>
                <time>2006-10-22T05:25:17Z</time>
            </trkpt>
            <trkpt lon="99.355822" lat="13.513323">
                <ele>110.208252</ele>
                <time>2006-10-22T05:25:28Z</time>
            </trkpt>
            <trkpt lon="99.355775" lat="13.513350">
                <ele>108.766235</ele>
                <time>2006-10-22T05:25:38Z</time>
            </trkpt>
            <trkpt lon="99.355769" lat="13.513355">
                <ele>108.766235</ele>
                <time>2006-10-22T05:25:42Z</time>
            </trkpt>
            <trkpt lon="99.355677" lat="13.513358">
                <ele>108.285645</ele>
                <time>2006-10-22T05:25:52Z</time>
            </trkpt>
            <trkpt lon="99.355609" lat="13.513305">
                <ele>108.285645</ele>
                <time>2006-10-22T05:26:08Z</time>
            </trkpt>
            <trkpt lon="99.355595" lat="13.513325">
                <ele>107.324341</ele>
                <time>2006-10-22T05:26:39Z</time>
            </trkpt>
            <trkpt lon="99.355593" lat="13.513333">
                <ele>107.324341</ele>
                <time>2006-10-22T05:26:40Z</time>
            </trkpt>
            <trkpt lon="99.355593" lat="13.513356">
                <ele>107.805054</ele>
                <time>2006-10-22T05:27:01Z</time>
            </trkpt>
            <trkpt lon="99.355593" lat="13.513339">
                <ele>106.363037</ele>
                <time>2006-10-22T05:27:56Z</time>
            </trkpt>
            <trkpt lon="99.355587" lat="13.513313">
                <ele>107.324341</ele>
                <time>2006-10-22T05:28:07Z</time>
            </trkpt>
            <trkpt lon="99.355538" lat="13.513322">
                <ele>107.805054</ele>
                <time>2006-10-22T05:28:21Z</time>
            </trkpt>
            <trkpt lon="99.355492" lat="13.513320">
                <ele>108.285645</ele>
                <time>2006-10-22T05:28:29Z</time>
            </trkpt>
            <trkpt lon="99.355391" lat="13.513243">
                <ele>106.843628</ele>
                <time>2006-10-22T05:28:42Z</time>
            </trkpt>
            <trkpt lon="99.355350" lat="13.513191">
                <ele>106.843628</ele>
                <time>2006-10-22T05:28:55Z</time>
            </trkpt>
            <trkpt lon="99.355351" lat="13.513189">
                <ele>108.285645</ele>
                <time>2006-10-22T05:29:23Z</time>
            </trkpt>
            <trkpt lon="99.355353" lat="13.513191">
                <ele>107.805054</ele>
                <time>2006-10-22T05:29:48Z</time>
            </trkpt>
            <trkpt lon="99.355189" lat="13.513178">
                <ele>106.843628</ele>
                <time>2006-10-22T05:29:59Z</time>
            </trkpt>
            <trkpt lon="99.355122" lat="13.513121">
                <ele>106.843628</ele>
                <time>2006-10-22T05:30:05Z</time>
            </trkpt>
            <trkpt lon="99.355123" lat="13.513091">
                <ele>106.843628</ele>
                <time>2006-10-22T05:30:10Z</time>
            </trkpt>
            <trkpt lon="99.355071" lat="13.513035">
                <ele>106.363037</ele>
                <time>2006-10-22T05:30:18Z</time>
            </trkpt>
            <trkpt lon="99.355101" lat="13.512949">
                <ele>105.882446</ele>
                <time>2006-10-22T05:30:24Z</time>
            </trkpt>
            <trkpt lon="99.355021" lat="13.512916">
                <ele>105.401733</ele>
                <time>2006-10-22T05:30:29Z</time>
            </trkpt>
            <trkpt lon="99.354992" lat="13.512899">
                <ele>105.882446</ele>
                <time>2006-10-22T05:30:31Z</time>
            </trkpt>
            <trkpt lon="99.354950" lat="13.512838">
                <ele>107.324341</ele>
                <time>2006-10-22T05:30:44Z</time>
            </trkpt>
            <trkpt lon="99.354956" lat="13.512766">
                <ele>106.843628</ele>
                <time>2006-10-22T05:30:52Z</time>
            </trkpt>
            <trkpt lon="99.354973" lat="13.512648">
                <ele>108.766235</ele>
                <time>2006-10-22T05:31:05Z</time>
            </trkpt>
            <trkpt lon="99.355024" lat="13.512619">
                <ele>109.246948</ele>
                <time>2006-10-22T05:31:12Z</time>
            </trkpt>
            <trkpt lon="99.355087" lat="13.512616">
                <ele>109.727661</ele>
                <time>2006-10-22T05:31:16Z</time>
            </trkpt>
            <trkpt lon="99.355218" lat="13.512646">
                <ele>110.688843</ele>
                <time>2006-10-22T05:31:23Z</time>
            </trkpt>
            <trkpt lon="99.355384" lat="13.512848">
                <ele>111.169556</ele>
                <time>2006-10-22T05:31:36Z</time>
            </trkpt>
            <trkpt lon="99.355753" lat="13.512865">
                <ele>112.130981</ele>
                <time>2006-10-22T05:31:50Z</time>
            </trkpt>
            <trkpt lon="99.356020" lat="13.512805">
                <ele>112.611572</ele>
                <time>2006-10-22T05:32:04Z</time>
            </trkpt>
            <trkpt lon="99.356441" lat="13.512698">
                <ele>112.611572</ele>
                <time>2006-10-22T05:32:18Z</time>
            </trkpt>
            <trkpt lon="99.356698" lat="13.512945">
                <ele>113.092285</ele>
                <time>2006-10-22T05:32:28Z</time>
            </trkpt>
            <trkpt lon="99.357024" lat="13.513287">
                <ele>113.092285</ele>
                <time>2006-10-22T05:32:39Z</time>
            </trkpt>
            <trkpt lon="99.357545" lat="13.513804">
                <ele>114.053589</ele>
                <time>2006-10-22T05:32:57Z</time>
            </trkpt>
            <trkpt lon="99.357413" lat="13.513878">
                <ele>114.534180</ele>
                <time>2006-10-22T05:33:03Z</time>
            </trkpt>
            <trkpt lon="99.356741" lat="13.513897">
                <ele>113.092285</ele>
                <time>2006-10-22T05:33:18Z</time>
            </trkpt>
            <trkpt lon="99.356200" lat="13.513941">
                <ele>112.611572</ele>
                <time>2006-10-22T05:33:29Z</time>
            </trkpt>
            <trkpt lon="99.355029" lat="13.513730">
                <ele>110.688843</ele>
                <time>2006-10-22T05:33:51Z</time>
            </trkpt>
            <trkpt lon="99.353831" lat="13.513617">
                <ele>111.169556</ele>
                <time>2006-10-22T05:34:13Z</time>
            </trkpt>
            <trkpt lon="99.352734" lat="13.513479">
                <ele>112.130981</ele>
                <time>2006-10-22T05:34:34Z</time>
            </trkpt>
            <trkpt lon="99.351766" lat="13.513322">
                <ele>112.611572</ele>
                <time>2006-10-22T05:34:53Z</time>
            </trkpt>
            <trkpt lon="99.351665" lat="13.513307">
                <ele>112.611572</ele>
                <time>2006-10-22T05:34:55Z</time>
            </trkpt>
            <trkpt lon="99.351565" lat="13.513302">
                <ele>111.169556</ele>
                <time>2006-10-22T05:34:57Z</time>
            </trkpt>
            <trkpt lon="99.351327" lat="13.513328">
                <ele>111.650269</ele>
                <time>2006-10-22T05:35:02Z</time>
            </trkpt>
            <trkpt lon="99.351162" lat="13.513419">
                <ele>111.650269</ele>
                <time>2006-10-22T05:35:06Z</time>
            </trkpt>
            <trkpt lon="99.350259" lat="13.513982">
                <ele>110.208252</ele>
                <time>2006-10-22T05:35:25Z</time>
            </trkpt>
            <trkpt lon="99.350109" lat="13.514078">
                <ele>109.727661</ele>
                <time>2006-10-22T05:35:28Z</time>
            </trkpt>
            <trkpt lon="99.349974" lat="13.514246">
                <ele>109.246948</ele>
                <time>2006-10-22T05:35:32Z</time>
            </trkpt>
            <trkpt lon="99.349924" lat="13.514335">
                <ele>109.246948</ele>
                <time>2006-10-22T05:35:34Z</time>
            </trkpt>
            <trkpt lon="99.349811" lat="13.514422">
                <ele>108.766235</ele>
                <time>2006-10-22T05:35:37Z</time>
            </trkpt>
            <trkpt lon="99.349755" lat="13.514605">
                <ele>108.766235</ele>
                <time>2006-10-22T05:35:41Z</time>
            </trkpt>
            <trkpt lon="99.349758" lat="13.514907">
                <ele>109.727661</ele>
                <time>2006-10-22T05:35:47Z</time>
            </trkpt>
            <trkpt lon="99.349540" lat="13.515012">
                <ele>109.246948</ele>
                <time>2006-10-22T05:35:54Z</time>
            </trkpt>
            <trkpt lon="99.349498" lat="13.515012">
                <ele>109.246948</ele>
                <time>2006-10-22T05:35:55Z</time>
            </trkpt>
            <trkpt lon="99.349273" lat="13.515027">
                <ele>108.766235</ele>
                <time>2006-10-22T05:36:00Z</time>
            </trkpt>
            <trkpt lon="99.349092" lat="13.515106">
                <ele>108.766235</ele>
                <time>2006-10-22T05:36:04Z</time>
            </trkpt>
            <trkpt lon="99.348308" lat="13.515660">
                <ele>109.727661</ele>
                <time>2006-10-22T05:36:24Z</time>
            </trkpt>
            <trkpt lon="99.347443" lat="13.516265">
                <ele>109.246948</ele>
                <time>2006-10-22T05:36:43Z</time>
            </trkpt>
            <trkpt lon="99.346557" lat="13.517007">
                <ele>108.285645</ele>
                <time>2006-10-22T05:37:02Z</time>
            </trkpt>
            <trkpt lon="99.345849" lat="13.517670">
                <ele>108.285645</ele>
                <time>2006-10-22T05:37:20Z</time>
            </trkpt>
            <trkpt lon="99.345663" lat="13.517844">
                <ele>108.766235</ele>
                <time>2006-10-22T05:37:25Z</time>
            </trkpt>
            <trkpt lon="99.345158" lat="13.518341">
                <ele>110.688843</ele>
                <time>2006-10-22T05:37:41Z</time>
            </trkpt>
            <trkpt lon="99.344991" lat="13.518328">
                <ele>111.169556</ele>
                <time>2006-10-22T05:37:46Z</time>
            </trkpt>
            <trkpt lon="99.344714" lat="13.518352">
                <ele>111.169556</ele>
                <time>2006-10-22T05:37:52Z</time>
            </trkpt>
            <trkpt lon="99.344563" lat="13.518350">
                <ele>111.650269</ele>
                <time>2006-10-22T05:37:55Z</time>
            </trkpt>
            <trkpt lon="99.344301" lat="13.518102">
                <ele>112.611572</ele>
                <time>2006-10-22T05:38:03Z</time>
            </trkpt>
            <trkpt lon="99.344079" lat="13.516904">
                <ele>110.688843</ele>
                <time>2006-10-22T05:38:25Z</time>
            </trkpt>
            <trkpt lon="99.343873" lat="13.515798">
                <ele>110.208252</ele>
                <time>2006-10-22T05:38:43Z</time>
            </trkpt>
            <trkpt lon="99.343784" lat="13.515153">
                <ele>108.285645</ele>
                <time>2006-10-22T05:38:53Z</time>
            </trkpt>
            <trkpt lon="99.343814" lat="13.514986">
                <ele>107.805054</ele>
                <time>2006-10-22T05:38:57Z</time>
            </trkpt>
            <trkpt lon="99.343995" lat="13.514561">
                <ele>108.285645</ele>
                <time>2006-10-22T05:39:14Z</time>
            </trkpt>
            <trkpt lon="99.344027" lat="13.514484">
                <ele>108.285645</ele>
                <time>2006-10-22T05:39:19Z</time>
            </trkpt>
            <trkpt lon="99.344126" lat="13.514478">
                <ele>109.727661</ele>
                <time>2006-10-22T05:39:25Z</time>
            </trkpt>
            <trkpt lon="99.344480" lat="13.514686">
                <ele>110.688843</ele>
                <time>2006-10-22T05:39:40Z</time>
            </trkpt>
            <trkpt lon="99.344209" lat="13.514799">
                <ele>112.130981</ele>
                <time>2006-10-22T05:39:52Z</time>
            </trkpt>
            <trkpt lon="99.344137" lat="13.515029">
                <ele>110.208252</ele>
                <time>2006-10-22T05:40:01Z</time>
            </trkpt>
            <trkpt lon="99.344181" lat="13.515134">
                <ele>110.208252</ele>
                <time>2006-10-22T05:40:05Z</time>
            </trkpt>
            <trkpt lon="99.344229" lat="13.515192">
                <ele>108.285645</ele>
                <time>2006-10-22T05:40:16Z</time>
            </trkpt>
            <trkpt lon="99.344228" lat="13.515189">
                <ele>107.805054</ele>
                <time>2006-10-22T05:40:22Z</time>
            </trkpt>
        </trkseg>
    </trk>
</gpx>